PWSweather.com
Personal Weather Stations
Station Observations
SWHWX01
St AppolinardFR 38160

St AppolinardFR 38160

Lat: 45.191, Lon: 5.268

Elevation: 1460

Station Type: Davis Vantage Pro2 Plus

www.sweetwebhome.com/?show=wxindex

High Low Average
Temperature 45.4°F7.4°C 35.9°F2.2°C 41.8°F5.4°C
Dew Point 39.8°F4.3°C 28.2°F-2.1°C 33.8°F1.0°C
Winds 7.4 mph 11.9 kmh Calm Calm 3.0 mph WSW4.8 kmh WSW
Wind Gusts 12.0 mph19.3 kmh -- 4.0 mph6.4 kmh
Humidity 86% 65% 73%
Pressure 30.07 in1018.3 mb 29.91 in1012.9 mb -
Precipitation 0.06 in1.5 mm - -
Hour Temp Dew Point Humidity Winds Wind Gusts Pressure Precip Precip Rate Daily Precip Total
12:00 AM 38.0°F3.3°C 32.1°F0.1°C 79% 0.4 mph W0.6 kmh W 2.0 mph3.2 kmh 29.88 in1011.9 mb - 0.00 in0.0 mm 0.00 in0.0 mm
12:30 AM 37.7°F3.2°C 31.8°F-0.1°C 79% Calm Calm -- 29.90 in1012.5 mb - 0.00 in0.0 mm 0.00 in0.0 mm
01:00 AM 38.1°F3.4°C 31.9°F-0.1°C 78% 1.4 mph W2.3 kmh W 2.0 mph3.2 kmh 29.91 in1012.9 mb - 0.00 in0.0 mm 0.00 in0.0 mm
01:30 AM 37.3°F2.9°C 31.4°F-0.3°C 79% 2.3 mph W3.7 kmh W 4.0 mph6.4 kmh 29.91 in1012.9 mb - 0.00 in0.0 mm 0.00 in0.0 mm
02:00 AM 39.1°F3.9°C 30.2°F-1.0°C 70% 1.1 mph W1.8 kmh W 3.0 mph4.8 kmh 29.92 in1013.2 mb - 0.00 in0.0 mm 0.00 in0.0 mm
02:30 AM 39.0°F3.9°C 29.0°F-1.7°C 67% 3.3 mph W5.3 kmh W 5.0 mph8.0 kmh 29.92 in1013.2 mb - 0.00 in0.0 mm 0.00 in0.0 mm
03:00 AM 38.1°F3.4°C 28.4°F-2.0°C 68% 1.1 mph W1.8 kmh W 2.0 mph3.2 kmh 29.92 in1013.2 mb - 0.00 in0.0 mm 0.00 in0.0 mm
03:30 AM 36.0°F2.2°C 28.2°F-2.1°C 73% 0.1 mph W0.2 kmh W 2.0 mph3.2 kmh 29.92 in1013.2 mb - 0.00 in0.0 mm 0.00 in0.0 mm
04:00 AM 36.4°F2.4°C 28.2°F-2.1°C 72% 3.0 mph W4.8 kmh W 4.0 mph6.4 kmh 29.91 in1012.9 mb - 0.00 in0.0 mm 0.00 in0.0 mm
04:30 AM 37.0°F2.8°C 29.1°F-1.6°C 73% 5.6 mph W9.0 kmh W 7.0 mph11.3 kmh 29.93 in1013.5 mb - 0.00 in0.0 mm 0.00 in0.0 mm
05:00 AM 35.9°F2.2°C 29.4°F-1.4°C 77% 2.5 mph W4.0 kmh W 3.0 mph4.8 kmh 29.93 in1013.5 mb - 0.00 in0.0 mm 0.00 in0.0 mm
05:30 AM 37.9°F3.3°C 29.7°F-1.3°C 72% 2.3 mph W3.7 kmh W 3.0 mph4.8 kmh 29.94 in1013.9 mb - 0.00 in0.0 mm 0.00 in0.0 mm
06:00 AM 38.3°F3.5°C 29.4°F-1.4°C 70% Calm Calm -- 29.95 in1014.2 mb - 0.00 in0.0 mm 0.00 in0.0 mm
06:30 AM 38.2°F3.4°C 29.3°F-1.5°C 70% 1.7 mph W2.7 kmh W 2.0 mph3.2 kmh 29.97 in1014.9 mb - 0.00 in0.0 mm 0.00 in0.0 mm
07:00 AM 38.9°F3.8°C 28.9°F-1.7°C 67% 2.0 mph W3.2 kmh W 3.0 mph4.8 kmh 29.97 in1014.9 mb - 0.00 in0.0 mm 0.00 in0.0 mm
07:30 AM 39.5°F4.2°C 29.4°F-1.4°C 67% 0.9 mph W1.4 kmh W 1.0 mph1.6 kmh 29.98 in1015.2 mb - 0.00 in0.0 mm 0.00 in0.0 mm
08:00 AM 38.9°F3.8°C 29.9°F-1.2°C 70% 2.0 mph W3.2 kmh W 3.0 mph4.8 kmh 30.00 in1015.9 mb - 0.00 in0.0 mm 0.00 in0.0 mm
08:30 AM 38.5°F3.6°C 29.5°F-1.4°C 70% Calm Calm -- 30.01 in1016.3 mb - 0.00 in0.0 mm 0.00 in0.0 mm
09:00 AM 38.9°F3.8°C 30.3°F-0.9°C 71% 0.8 mph W1.3 kmh W 3.0 mph4.8 kmh 30.02 in1016.6 mb - 0.00 in0.0 mm 0.00 in0.0 mm
09:30 AM 39.7°F4.3°C 30.7°F-0.7°C 70% 2.6 mph W4.2 kmh W 3.0 mph4.8 kmh 30.02 in1016.6 mb - 0.00 in0.0 mm 0.00 in0.0 mm
10:00 AM 41.2°F5.1°C 31.5°F-0.3°C 68% 0.9 mph W1.4 kmh W 2.0 mph3.2 kmh 30.04 in1017.3 mb - 0.00 in0.0 mm 0.00 in0.0 mm
10:30 AM 42.0°F5.6°C 31.8°F-0.1°C 67% 3.1 mph W5.0 kmh W 5.0 mph8.0 kmh 30.05 in1017.6 mb - 0.00 in0.0 mm 0.00 in0.0 mm
11:00 AM 42.9°F6.1°C 31.9°F-0.1°C 65% 1.8 mph W2.9 kmh W 3.0 mph4.8 kmh 30.05 in1017.6 mb - 0.00 in0.0 mm 0.00 in0.0 mm
11:30 AM 43.3°F6.3°C 33.0°F0.6°C 67% 0.4 mph W0.6 kmh W 3.0 mph4.8 kmh 30.05 in1017.6 mb - 0.00 in0.0 mm 0.00 in0.0 mm
12:00 PM 44.1°F6.7°C 33.5°F0.8°C 66% 7.4 mph WNW11.9 kmh WNW 12.0 mph19.3 kmh 30.05 in1017.6 mb - 0.00 in0.0 mm 0.00 in0.0 mm
12:30 PM 43.4°F6.3°C 34.3°F1.3°C 70% 4.6 mph SW7.4 kmh SW 7.0 mph11.3 kmh 30.05 in1017.6 mb - 0.00 in0.0 mm 0.00 in0.0 mm
01:00 PM 43.9°F6.6°C 34.4°F1.3°C 69% 4.1 mph WSW6.6 kmh WSW 5.0 mph8.0 kmh 30.04 in1017.3 mb - 0.00 in0.0 mm 0.00 in0.0 mm
01:30 PM 44.7°F7.1°C 35.2°F1.8°C 69% 2.2 mph SW3.5 kmh SW 5.0 mph8.0 kmh 30.03 in1016.9 mb - 0.00 in0.0 mm 0.00 in0.0 mm
02:00 PM 45.1°F7.3°C 35.5°F1.9°C 69% 6.1 mph SW9.8 kmh SW 7.0 mph11.3 kmh 30.02 in1016.6 mb - 0.00 in0.0 mm 0.00 in0.0 mm
02:30 PM 44.7°F7.1°C 35.9°F2.2°C 71% 5.9 mph WSW9.5 kmh WSW 8.0 mph12.9 kmh 30.01 in1016.3 mb - 0.00 in0.0 mm 0.00 in0.0 mm
03:00 PM 44.7°F7.1°C 36.2°F2.3°C 72% 3.0 mph SSW4.8 kmh SSW 3.0 mph4.8 kmh 30.01 in1016.3 mb - 0.00 in0.0 mm 0.00 in0.0 mm
03:30 PM 44.8°F7.1°C 36.4°F2.4°C 72% 3.5 mph SW5.6 kmh SW 6.0 mph9.7 kmh 30.01 in1016.3 mb - 0.00 in0.0 mm 0.00 in0.0 mm
04:00 PM 44.7°F7.1°C 36.6°F2.6°C 73% 0.7 mph SW1.1 kmh SW 1.0 mph1.6 kmh 30.01 in1016.3 mb - 0.00 in0.0 mm 0.00 in0.0 mm
04:30 PM 44.3°F6.8°C 37.5°F3.1°C 77% 2.9 mph WSW4.7 kmh WSW 4.0 mph6.4 kmh 30.01 in1016.3 mb - 0.00 in0.0 mm 0.00 in0.0 mm
05:00 PM 44.3°F6.8°C 36.9°F2.7°C 75% 5.4 mph WSW8.7 kmh WSW 7.0 mph11.3 kmh 30.01 in1016.3 mb - 0.01 in0.3 mm 0.01 in0.3 mm
05:30 PM 44.0°F6.7°C 37.9°F3.3°C 79% Calm Calm -- 30.02 in1016.6 mb - 0.02 in0.5 mm 0.02 in0.5 mm
06:00 PM 43.8°F6.6°C 38.3°F3.5°C 81% 0.2 mph WSW0.3 kmh WSW 1.0 mph1.6 kmh 30.02 in1016.6 mb - 0.02 in0.5 mm 0.04 in1.0 mm
06:30 PM 43.5°F6.4°C 39.0°F3.9°C 84% 2.1 mph WSW3.4 kmh WSW 3.0 mph4.8 kmh 30.02 in1016.6 mb - 0.01 in0.3 mm 0.05 in1.3 mm
07:00 PM 43.7°F6.5°C 39.8°F4.3°C 86% 2.2 mph WSW3.5 kmh WSW 2.0 mph3.2 kmh 30.03 in1016.9 mb - 0.01 in0.3 mm 0.06 in1.5 mm
07:30 PM 44.2°F6.8°C 39.4°F4.1°C 83% 4.5 mph WSW7.2 kmh WSW 5.0 mph8.0 kmh 30.05 in1017.6 mb - 0.00 in0.0 mm 0.06 in1.5 mm
08:00 PM 44.0°F6.7°C 37.9°F3.3°C 79% 5.6 mph W9.0 kmh W 8.0 mph12.9 kmh 30.05 in1017.6 mb - 0.00 in0.0 mm 0.06 in1.5 mm
08:30 PM 44.5°F6.9°C 37.7°F3.2°C 77% 4.3 mph W6.9 kmh W 6.0 mph9.7 kmh 30.05 in1017.6 mb - 0.00 in0.0 mm 0.06 in1.5 mm
09:00 PM 44.6°F7.0°C 38.2°F3.4°C 78% 2.7 mph W4.3 kmh W 3.0 mph4.8 kmh 30.07 in1018.3 mb - 0.00 in0.0 mm 0.06 in1.5 mm
09:30 PM 45.0°F7.2°C 38.2°F3.4°C 77% 2.6 mph WSW4.2 kmh WSW 5.0 mph8.0 kmh 30.06 in1017.9 mb - 0.00 in0.0 mm 0.06 in1.5 mm
10:00 PM 45.0°F7.2°C 38.2°F3.4°C 77% 6.5 mph W10.5 kmh W 9.0 mph14.5 kmh 30.07 in1018.3 mb - 0.00 in0.0 mm 0.06 in1.5 mm
10:30 PM 45.1°F7.3°C 38.6°F3.7°C 78% 3.8 mph W6.1 kmh W 5.0 mph8.0 kmh 30.07 in1018.3 mb - 0.00 in0.0 mm 0.06 in1.5 mm
11:00 PM 45.4°F7.4°C 38.9°F3.8°C 78% 3.2 mph W5.1 kmh W 3.0 mph4.8 kmh 30.07 in1018.3 mb - 0.00 in0.0 mm 0.06 in1.5 mm
11:30 PM 45.3°F7.4°C 38.8°F3.8°C 78% 4.8 mph W7.7 kmh W 6.0 mph9.7 kmh 30.07 in1018.3 mb - 0.00 in0.0 mm 0.06 in1.5 mm